Time;durP1;ratioP1;P1;durP2;ratioP2;P2;SDS_P1;SDS_P2;PMS_P1;PMS_P2;Temp;Humidity;BMP_temperature;BMP_pressure;BME280_temperature;BME280_humidity;BME280_pressure;Samples;Min_cycle;Max_cycle;Signal;HPM_P1;HPM_P2
2022/11/01 00:01:43;;;;;;;;;0.25;0.25;;;;;18.45;69.04;100745.47;4839424;29;45323;-76
2022/11/01 00:04:08;;;;;;;;;1.50;0.50;;;;;18.45;68.76;100742.75;4830756;29;45634;-77
2022/11/01 00:06:35;;;;;;;;;1.00;1.00;;;;;18.48;68.65;100760.63;4828392;29;45227;-76
2022/11/01 00:09:00;;;;;;;;;0.00;0.00;;;;;18.41;67.94;100756.56;4830652;29;45468;-76
2022/11/01 00:11:26;;;;;;;;;1.00;1.00;;;;;18.37;67.51;100764.00;4828150;29;45475;-76
2022/11/01 00:13:51;;;;;;;;;0.75;0.75;;;;;18.38;67.45;100773.88;4840058;29;46014;-76
2022/11/01 00:16:19;;;;;;;;;0.75;0.00;;;;;18.34;67.38;100769.63;4836853;29;45253;-77
2022/11/01 00:18:45;;;;;;;;;2.00;0.75;;;;;18.26;66.00;100785.44;4835046;29;45368;-77
2022/11/01 00:21:11;;;;;;;;;0.50;0.50;;;;;18.24;65.85;100782.88;4834823;29;45470;-77
2022/11/01 00:23:37;;;;;;;;;0.25;0.25;;;;;18.19;65.86;100782.28;4829506;29;45396;-77
2022/11/01 00:26:03;;;;;;;;;0.00;0.00;;;;;18.22;65.55;100790.19;4852216;29;45418;-76
2022/11/01 00:28:29;;;;;;;;;1.00;0.00;;;;;18.22;65.07;100797.44;4831530;29;45457;-77
2022/11/01 00:30:56;;;;;;;;;0.25;0.00;;;;;18.16;65.64;100804.09;4838421;29;45298;-77
2022/11/01 00:33:21;;;;;;;;;2.25;0.75;;;;;18.14;65.44;100808.72;4834709;29;45619;-76
2022/11/01 00:35:47;;;;;;;;;0.25;0.25;;;;;18.11;65.37;100812.50;4828184;29;45440;-77
2022/11/01 00:38:14;;;;;;;;;0.25;0.00;;;;;18.10;65.15;100816.16;4831633;29;45289;-76
2022/11/01 00:40:39;;;;;;;;;0.00;0.00;;;;;18.07;64.82;100816.34;4843883;29;45479;-77
2022/11/01 00:43:04;;;;;;;;;0.00;0.00;;;;;18.03;64.31;100822.91;4825844;29;45344;-77
2022/11/01 00:45:30;;;;;;;;;0.00;0.00;;;;;18.03;64.99;100833.72;4842824;29;45374;-77
2022/11/01 00:47:55;;;;;;;;;0.75;0.75;;;;;18.02;65.00;100834.66;4841092;29;45272;-77
2022/11/01 00:50:21;;;;;;;;;2.50;0.00;;;;;18.02;64.54;100844.59;4836515;29;45483;-77
2022/11/01 00:52:46;;;;;;;;;0.00;0.00;;;;;17.96;64.41;100862.94;4834289;29;45404;-77
2022/11/01 00:55:11;;;;;;;;;1.00;0.00;;;;;17.87;63.40;100841.03;4839221;29;45454;-77
2022/11/01 00:57:37;;;;;;;;;0.00;0.00;;;;;17.88;63.06;100867.94;4840455;29;45373;-77
2022/11/01 01:00:03;;;;;;;;;0.50;0.00;;;;;17.78;62.92;100851.38;4836582;29;45368;-77
2022/11/01 01:02:29;;;;;;;;;0.00;0.00;;;;;17.77;63.48;100873.97;4829492;29;45492;-76
2022/11/01 01:04:54;;;;;;;;;0.00;0.00;;;;;17.74;63.01;100873.25;4836536;29;45342;-76
2022/11/01 01:07:19;;;;;;;;;0.25;0.00;;;;;17.68;62.58;100877.19;4832612;29;46165;-76
2022/11/01 01:09:45;;;;;;;;;0.00;0.00;;;;;17.68;62.33;100881.75;4828037;29;45321;-77
2022/11/01 01:12:10;;;;;;;;;0.00;0.00;;;;;17.64;61.13;100894.56;4829434;29;46028;-77
2022/11/01 01:14:35;;;;;;;;;0.00;0.00;;;;;17.56;61.82;100884.22;4838711;29;45334;-77
2022/11/01 01:17:01;;;;;;;;;0.00;0.00;;;;;17.60;61.91;100911.88;4840303;29;45290;-76
2022/11/01 01:19:30;;;;;;;;;0.00;0.00;;;;;17.55;61.62;100898.66;4836469;29;45237;-76
2022/11/01 01:21:56;;;;;;;;;0.00;0.00;;;;;17.47;61.55;100897.38;4830828;29;45304;-76
2022/11/01 01:24:22;;;;;;;;;0.00;0.00;;;;;17.39;61.29;100904.09;4848791;29;45762;-77
2022/11/01 01:26:47;;;;;;;;;0.00;0.00;;;;;17.36;61.49;100915.06;4826470;29;45341;-76
2022/11/01 01:29:12;;;;;;;;;2.25;0.00;;;;;17.31;61.81;100909.06;4838260;29;45259;-77
2022/11/01 01:31:37;;;;;;;;;0.00;0.00;;;;;17.31;61.63;100913.59;4839124;29;45377;-77
2022/11/01 01:34:03;;;;;;;;;1.00;1.00;;;;;17.26;61.42;100916.56;4831138;29;45414;-77
2022/11/01 01:36:28;;;;;;;;;0.00;0.00;;;;;17.25;61.73;100917.50;4833123;29;45340;-76
2022/11/01 01:38:54;;;;;;;;;2.75;0.00;;;;;17.28;61.37;100930.81;4847018;29;45372;-76
2022/11/01 01:44:40;;;;;;;;;0.75;0.00;;;;;17.26;61.28;100943.53;4823263;29;45498;-77
2022/11/01 01:47:07;;;;;;;;;1.00;1.00;;;;;17.15;60.81;100932.47;4854856;29;45221;-77
2022/11/01 01:49:33;;;;;;;;;0.00;0.00;;;;;17.10;61.62;100938.13;4833816;29;45289;-76
2022/11/01 01:51:58;;;;;;;;;0.00;0.00;;;;;17.12;61.35;100960.47;4853297;29;48302;-76
2022/11/01 01:54:24;;;;;;;;;0.00;0.00;;;;;17.09;60.73;100959.78;4831095;29;45392;-77
2022/11/01 01:56:49;;;;;;;;;0.50;0.00;;;;;17.13;61.09;100972.16;4838419;29;45285;-77
2022/11/01 01:59:14;;;;;;;;;0.00;0.00;;;;;17.12;60.39;100967.72;4836813;29;45324;-77
2022/11/01 02:01:40;;;;;;;;;0.00;0.00;;;;;17.09;61.17;100978.66;4841514;29;45404;-77
2022/11/01 02:04:21;;;;;;;;;0.00;0.00;;;;;17.05;61.04;100975.28;4842924;29;45317;-77
2022/11/01 02:06:47;;;;;;;;;0.50;0.00;;;;;17.04;61.16;100976.25;4839965;29;45431;-77
2022/11/01 02:09:15;;;;;;;;;0.00;0.00;;;;;17.09;61.34;100982.25;4830248;29;45448;-77
2022/11/01 02:11:40;;;;;;;;;0.00;0.00;;;;;17.09;60.87;100994.84;4840556;29;45320;-77
2022/11/01 02:14:06;;;;;;;;;0.00;0.00;;;;;16.97;61.35;100986.50;4843603;29;45387;-77
2022/11/01 02:17:11;;;;;;;;;1.50;0.00;;;;;17.02;61.03;101008.69;4841043;29;45451;-76
2022/11/01 02:19:54;;;;;;;;;0.00;0.00;;;;;16.99;61.22;101016.94;4821467;29;45329;-76
2022/11/01 02:22:31;;;;;;;;;1.00;0.00;;;;;16.99;61.81;101014.25;4841159;29;47538;-77
2022/11/01 02:25:20;;;;;;;;;0.00;0.00;;;;;16.99;61.52;101024.16;4830866;29;45310;-77
2022/11/01 02:28:22;;;;;;;;;0.00;0.00;;;;;16.98;61.46;101019.72;4840434;29;45325;-77
2022/11/01 02:31:21;;;;;;;;;0.00;0.00;;;;;16.97;61.43;101009.88;4820653;29;45251;-77
2022/11/01 02:33:56;;;;;;;;;1.75;0.00;;;;;16.95;61.34;101025.28;4818747;29;45325;-76
2022/11/01 02:36:35;;;;;;;;;0.50;0.00;;;;;16.90;60.25;101038.16;4842484;29;45276;-77
2022/11/01 02:39:13;;;;;;;;;0.00;0.00;;;;;16.73;60.91;101030.94;4834651;29;45418;-76
2022/11/01 02:41:44;;;;;;;;;0.25;0.00;;;;;16.77;61.34;101032.50;4828986;29;45546;-76
2022/11/01 02:44:19;;;;;;;;;1.00;0.00;;;;;16.72;61.15;101031.88;4829979;29;45378;-76
2022/11/01 02:47:02;;;;;;;;;1.00;0.00;;;;;16.77;61.28;101035.19;4819047;29;45434;-76
2022/11/01 02:49:37;;;;;;;;;2.00;0.00;;;;;16.75;60.75;101037.13;4835300;29;45327;-76
2022/11/01 02:52:05;;;;;;;;;0.00;0.00;;;;;16.73;60.44;101042.59;4839952;29;45450;-76
2022/11/01 02:54:39;;;;;;;;;0.00;0.00;;;;;16.67;60.10;101034.81;4849704;29;48463;-77
2022/11/01 02:57:34;;;;;;;;;1.50;0.00;;;;;16.68;60.26;101048.22;4838450;29;45408;-76
2022/11/01 03:00:18;;;;;;;;;1.00;1.00;;;;;16.66;60.15;101041.19;4819155;29;45325;-76
2022/11/01 03:02:43;;;;;;;;;0.00;0.00;;;;;16.60;60.24;101038.81;4833306;29;45357;-76
2022/11/01 03:05:25;;;;;;;;;0.00;0.00;;;;;16.54;60.04;101045.41;4837560;29;48090;-76
2022/11/01 03:07:55;;;;;;;;;1.00;0.50;;;;;16.52;60.36;101054.50;4852699;29;46041;-76
2022/11/01 03:10:34;;;;;;;;;0.00;0.00;;;;;16.46;60.36;101043.09;4828282;29;45255;-76
2022/11/01 03:13:20;;;;;;;;;0.50;0.00;;;;;16.40;60.25;101045.22;4856889;29;45283;-76
2022/11/01 03:15:55;;;;;;;;;0.50;0.00;;;;;16.44;60.73;101055.78;4835824;29;45391;-77
2022/11/01 03:18:32;;;;;;;;;1.75;0.00;;;;;16.41;60.40;101058.63;4836238;29;45366;-81
2022/11/01 03:21:14;;;;;;;;;1.00;1.00;;;;;16.41;60.74;101071.25;4824099;29;46028;-81
2022/11/01 03:23:48;;;;;;;;;0.00;0.00;;;;;16.39;60.77;101078.50;4845562;29;45297;-82
2022/11/01 03:26:18;;;;;;;;;1.50;0.00;;;;;16.36;60.55;101076.00;4840761;29;47404;-81
2022/11/01 03:28:48;;;;;;;;;1.50;0.00;;;;;16.33;60.64;101076.16;4832919;29;45391;-81
2022/11/01 03:31:24;;;;;;;;;3.00;0.00;;;;;16.28;60.39;101079.94;4862815;29;45296;-81
2022/11/01 03:34:00;;;;;;;;;0.00;0.00;;;;;16.26;60.63;101089.91;4841545;29;45463;-81
2022/11/01 03:36:35;;;;;;;;;0.00;0.00;;;;;16.20;60.72;101081.28;4841735;29;45264;-82
2022/11/01 03:39:08;;;;;;;;;0.25;0.00;;;;;16.24;60.80;101094.50;4831573;29;45480;-81
2022/11/01 03:41:40;;;;;;;;;1.00;0.00;;;;;16.09;60.95;101069.22;4829640;29;45354;-81
2022/11/01 03:44:08;;;;;;;;;2.00;0.50;;;;;16.20;60.75;101101.00;4829338;29;45332;-81
2022/11/01 03:46:34;;;;;;;;;0.25;0.00;;;;;16.17;60.89;101079.63;4834800;29;46359;-81
2022/11/01 03:48:59;;;;;;;;;1.75;0.50;;;;;16.22;60.88;101104.50;4835380;29;45344;-81
2022/11/01 03:51:24;;;;;;;;;0.00;0.00;;;;;16.21;60.91;101109.97;4832993;29;45281;-81
2022/11/01 03:53:50;;;;;;;;;1.75;0.00;;;;;16.12;60.92;101116.66;4848667;29;50433;-81
2022/11/01 03:56:15;;;;;;;;;1.50;1.00;;;;;16.10;61.13;101127.53;4830036;29;46055;-81
2022/11/01 03:58:40;;;;;;;;;0.00;0.00;;;;;16.04;61.24;101133.22;4837864;29;45440;-81
2022/11/01 04:01:08;;;;;;;;;0.00;0.00;;;;;16.06;61.31;101152.00;4855777;29;45395;-81
2022/11/01 04:03:33;;;;;;;;;3.75;0.00;;;;;16.05;61.25;101158.31;4839672;29;45341;-81
2022/11/01 04:05:59;;;;;;;;;0.50;0.00;;;;;16.05;61.05;101159.16;4834896;29;46544;-81
2022/11/01 04:08:24;;;;;;;;;2.00;0.00;;;;;16.01;61.35;101159.41;4834101;29;45328;-81
2022/11/01 04:10:49;;;;;;;;;0.00;0.00;;;;;16.03;61.28;101165.59;4839959;29;45317;-81
2022/11/01 04:13:15;;;;;;;;;0.75;0.00;;;;;16.00;61.01;101171.13;4852110;29;45363;-81
2022/11/01 04:21:23;;;;;;;;;0.00;0.00;;;;;15.87;61.42;101185.19;4828659;29;45422;-81
2022/11/01 04:23:49;;;;;;;;;0.00;0.00;;;;;15.86;61.67;101186.13;4841904;29;45253;-81
2022/11/01 04:26:20;;;;;;;;;0.75;0.00;;;;;15.90;61.55;101198.50;4830823;29;46214;-81
2022/11/01 04:28:55;;;;;;;;;1.50;0.00;;;;;15.95;61.59;101210.88;4834153;29;45373;-82
2022/11/01 04:31:27;;;;;;;;;1.50;1.00;;;;;15.87;61.71;101204.03;4846248;29;45446;-81
2022/11/01 04:33:54;;;;;;;;;1.25;0.00;;;;;15.85;61.47;101205.91;4836428;29;45314;-81
2022/11/01 04:36:20;;;;;;;;;5.00;1.00;;;;;15.73;61.47;101191.16;4834548;29;46367;-81
2022/11/01 04:38:56;;;;;;;;;0.75;0.75;;;;;15.82;61.59;101216.84;4839374;29;45338;-82
2022/11/01 04:41:27;;;;;;;;;0.00;0.00;;;;;15.83;61.74;101223.94;4828405;29;45410;-81
2022/11/01 04:43:54;;;;;;;;;1.00;1.00;;;;;15.86;61.42;101234.56;4828721;29;45313;-82
2022/11/01 04:46:20;;;;;;;;;1.00;0.00;;;;;15.82;61.67;101238.38;4844743;29;46172;-81
2022/11/01 04:48:45;;;;;;;;;0.00;0.00;;;;;15.77;61.74;101229.63;4836391;29;45642;-82
2022/11/01 04:51:10;;;;;;;;;1.75;0.00;;;;;15.80;61.52;101237.53;4842419;29;45462;-81
2022/11/01 04:53:36;;;;;;;;;2.00;0.00;;;;;15.68;61.66;101221.94;4850893;29;45263;-81
2022/11/01 04:56:03;;;;;;;;;2.50;1.00;;;;;15.76;61.81;101232.41;4846920;29;47049;-82
2022/11/01 04:58:29;;;;;;;;;1.50;0.00;;;;;15.75;61.65;101239.53;4850494;29;45541;-82
2022/11/01 05:00:54;;;;;;;;;1.00;0.00;;;;;15.74;61.93;101256.66;4826520;29;45412;-82
2022/11/01 05:03:20;;;;;;;;;3.00;2.00;;;;;15.73;61.76;101252.22;4834471;29;46238;-82
2022/11/01 05:05:45;;;;;;;;;1.00;0.50;;;;;15.70;61.93;101255.03;4842852;29;46910;-82
2022/11/01 05:08:12;;;;;;;;;0.75;0.25;;;;;15.71;61.87;101265.72;4831189;29;45261;-81
2022/11/01 05:10:40;;;;;;;;;1.00;1.00;;;;;15.68;61.87;101256.94;4831017;29;45420;-82
2022/11/01 05:13:06;;;;;;;;;4.00;2.00;;;;;15.63;61.71;101243.66;4840759;29;45346;-82
2022/11/01 05:15:33;;;;;;;;;1.25;1.25;;;;;15.61;62.14;101259.03;4848827;29;46886;-81
2022/11/01 05:17:58;;;;;;;;;1.50;0.25;;;;;15.57;62.09;101260.13;4831240;29;45344;-81
2022/11/01 05:20:24;;;;;;;;;0.75;0.00;;;;;15.55;62.07;101257.50;4829392;29;45335;-81
2022/11/01 05:22:50;;;;;;;;;0.75;0.75;;;;;15.64;62.00;101282.25;4840589;29;45274;-82
2022/11/01 05:25:16;;;;;;;;;0.50;0.00;;;;;15.59;62.05;101278.88;4842382;29;46078;-81
2022/11/01 05:27:42;;;;;;;;;1.00;0.75;;;;;15.52;62.28;101271.06;4854592;29;45478;-82
2022/11/01 05:30:08;;;;;;;;;1.25;0.00;;;;;15.56;62.10;101278.06;4837514;29;45330;-81
2022/11/01 05:32:36;;;;;;;;;3.75;0.50;;;;;15.55;62.33;101281.72;4839957;29;45304;-82
2022/11/01 05:35:03;;;;;;;;;2.75;0.25;;;;;15.54;62.72;101287.16;4843393;29;45290;-82
2022/11/01 05:37:29;;;;;;;;;1.75;0.75;;;;;15.45;62.53;101280.38;4841352;29;45277;-82
2022/11/01 05:39:54;;;;;;;;;3.00;0.00;;;;;15.52;62.44;101300.69;4831396;29;45423;-82
2022/11/01 05:42:19;;;;;;;;;5.75;0.00;;;;;15.48;62.56;101290.09;4833228;29;45487;-82
2022/11/01 05:44:45;;;;;;;;;5.00;1.00;;;;;15.49;62.58;101292.72;4830977;29;45424;-82
2022/11/01 05:47:10;;;;;;;;;1.75;1.00;;;;;15.44;62.53;101292.06;4831092;29;45313;-82
2022/11/01 05:49:35;;;;;;;;;0.75;0.25;;;;;15.48;62.55;101304.44;4830298;29;45310;-82
2022/11/01 05:52:01;;;;;;;;;0.00;0.00;;;;;15.41;62.68;101294.88;4830862;29;45286;-81
2022/11/01 05:54:26;;;;;;;;;2.00;1.00;;;;;15.44;62.75;101304.66;4843146;29;45348;-82
2022/11/01 05:56:51;;;;;;;;;1.50;0.50;;;;;15.43;62.58;101303.75;4839070;29;45240;-81
2022/11/01 05:59:17;;;;;;;;;0.00;0.00;;;;;15.36;62.67;101289.69;4837343;29;45320;-81
2022/11/01 06:01:42;;;;;;;;;2.00;1.00;;;;;15.39;62.49;101302.16;4852508;29;45825;-82
2022/11/01 06:04:07;;;;;;;;;3.50;1.00;;;;;15.32;62.98;101300.69;4829177;29;45331;-82
2022/11/01 06:06:33;;;;;;;;;2.25;1.75;;;;;15.36;62.79;101308.53;4840728;29;45314;-81
2022/11/01 06:08:58;;;;;;;;;4.25;1.00;;;;;15.31;62.86;101307.00;4830535;29;45239;-82
2022/11/01 06:11:26;;;;;;;;;4.00;1.00;;;;;15.27;62.66;101308.03;4830998;29;45555;-81
2022/11/01 06:13:55;;;;;;;;;3.00;0.50;;;;;15.22;63.01;101313.66;4842960;29;48279;-82
2022/11/01 06:16:22;;;;;;;;;3.00;0.00;;;;;15.18;62.87;101304.84;4838175;29;45505;-81
2022/11/01 06:18:47;;;;;;;;;1.25;1.25;;;;;15.19;63.03;101317.31;4834342;29;45402;-82
2022/11/01 06:21:13;;;;;;;;;1.00;1.00;;;;;15.15;63.19;101322.91;4823547;29;45393;-82
2022/11/01 06:23:38;;;;;;;;;4.00;1.00;;;;;15.17;63.05;101321.03;4842758;29;45266;-81
2022/11/01 06:26:05;;;;;;;;;2.75;0.00;;;;;15.16;63.07;101335.41;4847479;29;45462;-82
2022/11/01 06:28:31;;;;;;;;;2.25;0.25;;;;;15.12;63.32;101329.28;4836873;29;45287;-82
2022/11/01 06:31:01;;;;;;;;;1.50;1.00;;;;;15.07;63.34;101325.03;4838229;29;45343;-81
2022/11/01 06:33:27;;;;;;;;;2.50;1.50;;;;;15.08;63.43;101330.34;4846253;29;45658;-82
2022/11/01 06:35:52;;;;;;;;;1.25;1.25;;;;;15.12;63.37;101336.50;4835101;29;45483;-81
2022/11/01 06:38:17;;;;;;;;;2.00;2.00;;;;;15.05;63.31;101329.59;4842576;29;45461;-82
2022/11/01 06:40:45;;;;;;;;;4.00;0.50;;;;;15.06;63.47;101336.75;4841193;29;45476;-78
2022/11/01 06:43:10;;;;;;;;;1.25;1.00;;;;;15.11;63.29;101340.09;4830190;29;45878;-81
2022/11/01 06:45:36;;;;;;;;;3.00;1.00;;;;;15.12;63.38;101345.44;4830082;29;45381;-80
2022/11/01 06:48:01;;;;;;;;;2.50;1.00;;;;;15.11;63.33;101348.19;4840745;29;45303;-81
2022/11/01 06:50:26;;;;;;;;;1.75;1.00;;;;;15.05;63.39;101343.94;4828969;29;45881;-80
2022/11/01 06:52:56;;;;;;;;;5.25;1.25;;;;;15.08;63.41;101351.84;4831711;29;45272;-81
2022/11/01 06:55:21;;;;;;;;;2.00;1.00;;;;;15.00;63.42;101353.97;4844018;29;45295;-80
2022/11/01 06:57:57;;;;;;;;;2.75;1.00;;;;;15.06;63.50;101359.13;4844498;29;45514;-81
2022/11/01 07:00:24;;;;;;;;;7.00;1.00;;;;;15.03;63.71;101364.63;4840811;29;45477;-81
2022/11/01 07:02:57;;;;;;;;;3.25;1.00;;;;;15.03;63.81;101369.13;4835858;29;45508;-81
2022/11/01 07:05:23;;;;;;;;;2.50;2.00;;;;;15.03;63.55;101371.81;4829040;29;45728;-81
2022/11/01 07:07:48;;;;;;;;;0.00;0.00;;;;;15.00;63.76;101376.38;4842842;29;45408;-81
2022/11/01 07:10:13;;;;;;;;;1.25;1.25;;;;;14.95;64.30;101374.81;4828598;29;47375;-81
2022/11/01 07:12:38;;;;;;;;;0.00;0.00;;;;;14.93;63.68;101374.00;4847279;29;47559;-80
2022/11/01 07:15:04;;;;;;;;;2.75;1.00;;;;;14.95;63.72;101383.75;4844207;29;45354;-81
2022/11/01 07:17:30;;;;;;;;;2.75;2.00;;;;;14.92;63.96;101374.94;4835866;29;45458;-81
2022/11/01 07:19:55;;;;;;;;;3.75;1.00;;;;;14.96;63.95;101382.81;4814405;29;45333;-81
2022/11/01 07:22:21;;;;;;;;;5.00;2.00;;;;;14.91;63.82;101390.19;4835720;29;46372;-81
2022/11/01 07:24:46;;;;;;;;;2.75;1.25;;;;;14.91;63.80;101392.00;4834152;29;47946;-81
2022/11/01 07:27:11;;;;;;;;;3.75;0.50;;;;;14.95;64.06;101404.38;4829320;29;45284;-81
2022/11/01 07:29:39;;;;;;;;;1.00;1.00;;;;;14.90;64.10;101396.53;4843418;29;45296;-81
2022/11/01 07:32:04;;;;;;;;;1.25;1.00;;;;;14.95;63.97;101418.72;4852977;29;47807;-81
2022/11/01 07:34:30;;;;;;;;;3.00;1.75;;;;;14.92;64.01;101408.06;4823370;29;45281;-81
2022/11/01 07:36:55;;;;;;;;;1.00;1.00;;;;;14.96;64.30;101416.88;4847942;29;45432;-81
2022/11/01 07:39:20;;;;;;;;;2.50;1.25;;;;;14.94;64.17;101411.56;4835600;29;45387;-81
2022/11/01 07:41:46;;;;;;;;;3.50;2.00;;;;;14.97;64.28;101419.50;4840676;29;51977;-81
2022/11/01 07:44:12;;;;;;;;;2.75;1.25;;;;;14.99;64.27;101422.16;4828878;29;45503;-81
2022/11/01 07:46:37;;;;;;;;;1.00;1.00;;;;;14.97;64.18;101407.91;4846780;29;45502;-81
2022/11/01 07:49:02;;;;;;;;;1.25;1.25;;;;;14.89;64.18;101401.94;4834646;29;45253;-81
2022/11/01 07:51:28;;;;;;;;;3.00;1.00;;;;;14.96;64.00;101416.88;4833107;29;46108;-81
2022/11/01 07:53:53;;;;;;;;;2.50;1.00;;;;;14.99;64.25;101432.91;4837290;29;45302;-82
2022/11/01 07:56:20;;;;;;;;;4.75;1.50;;;;;14.96;64.39;101425.81;4846043;29;45415;-81
2022/11/01 07:58:46;;;;;;;;;2.50;1.50;;;;;14.98;64.11;101431.13;4845578;29;45469;-81
2022/11/01 08:01:11;;;;;;;;;0.50;0.00;;;;;14.92;64.12;101423.34;4827081;29;46041;-81
2022/11/01 08:03:37;;;;;;;;;4.00;1.25;;;;;14.96;63.99;101441.09;4843551;29;45244;-81
2022/11/01 08:06:02;;;;;;;;;5.75;1.00;;;;;14.89;64.06;101429.69;4840190;29;45343;-76
2022/11/01 08:08:28;;;;;;;;;1.50;1.50;;;;;14.98;64.00;101441.88;4843490;29;45504;-76
2022/11/01 08:10:53;;;;;;;;;5.50;1.75;;;;;14.97;64.41;101448.22;4833023;29;50919;-76
2022/11/01 08:13:23;;;;;;;;;2.25;1.25;;;;;14.96;64.30;101441.09;4840123;29;45242;-76
2022/11/01 08:15:50;;;;;;;;;3.00;1.00;;;;;15.00;64.06;101454.34;4832033;29;45343;-76
2022/11/01 08:18:17;;;;;;;;;4.75;2.25;;;;;15.01;64.31;101448.00;4821490;29;45710;-75
2022/11/01 08:20:42;;;;;;;;;1.00;1.00;;;;;14.92;64.06;101443.03;4828548;29;45642;-75
2022/11/01 08:23:08;;;;;;;;;3.00;2.00;;;;;15.04;63.97;101451.53;4840511;29;45327;-75
2022/11/01 08:25:34;;;;;;;;;3.00;1.00;;;;;14.97;64.11;101453.59;4827266;29;45400;-75
2022/11/01 08:28:01;;;;;;;;;4.00;2.00;;;;;14.96;64.33;101450.00;4834276;29;45628;-75
2022/11/01 08:30:27;;;;;;;;;3.00;2.00;;;;;14.91;64.04;101441.25;4828405;29;45310;-75
2022/11/01 08:33:00;;;;;;;;;4.00;1.00;;;;;14.98;64.37;101439.19;4840914;29;45275;-75
2022/11/01 08:35:25;;;;;;;;;3.50;1.00;;;;;15.01;64.57;101441.78;4837864;29;45285;-75
2022/11/01 08:37:51;;;;;;;;;1.00;0.50;;;;;15.02;64.29;101446.22;4818014;29;45403;-75
2022/11/01 08:40:19;;;;;;;;;2.00;1.00;;;;;14.94;64.33;101421.47;4827474;29;45440;-75
2022/11/01 08:42:44;;;;;;;;;3.50;1.00;;;;;14.99;64.24;101435.59;4842159;29;45326;-75
2022/11/01 08:45:10;;;;;;;;;2.00;0.00;;;;;15.03;64.35;101441.72;4831678;29;45345;-75
2022/11/01 08:47:36;;;;;;;;;2.50;1.00;;;;;15.04;64.39;101441.66;4858196;29;45422;-75
2022/11/01 08:50:02;;;;;;;;;1.25;0.75;;;;;14.97;64.65;101435.66;4831338;29;45337;-76
2022/11/01 08:52:27;;;;;;;;;1.00;1.00;;;;;15.04;64.45;101446.16;4843122;29;45339;-80
2022/11/01 08:54:53;;;;;;;;;1.50;1.00;;;;;15.09;64.76;101450.41;4835830;29;45182;-80
2022/11/01 08:57:18;;;;;;;;;1.75;1.50;;;;;15.14;64.61;101442.16;4839280;29;45238;-80
2022/11/01 08:59:43;;;;;;;;;1.75;1.00;;;;;15.15;64.62;101442.09;4825382;29;51793;-80
2022/11/01 09:02:10;;;;;;;;;1.75;1.75;;;;;15.19;64.49;101445.53;4830435;29;45364;-80
2022/11/01 09:04:36;;;;;;;;;2.75;1.25;;;;;15.17;64.35;101442.91;4832772;29;45274;-80
2022/11/01 09:07:01;;;;;;;;;2.50;1.25;;;;;15.25;64.35;101445.31;4837741;29;45248;-80
2022/11/01 09:09:26;;;;;;;;;2.50;1.00;;;;;15.30;64.28;101446.00;4841923;29;45575;-80
2022/11/01 09:11:52;;;;;;;;;2.00;2.00;;;;;15.33;64.15;101440.47;4842751;29;45274;-80
2022/11/01 09:14:19;;;;;;;;;3.25;1.75;;;;;15.37;64.12;101449.31;4840172;29;45420;-80
2022/11/01 09:16:44;;;;;;;;;3.25;2.00;;;;;15.32;64.13;101438.72;4831181;29;45304;-80
2022/11/01 09:19:10;;;;;;;;;2.00;1.00;;;;;15.42;63.96;101452.69;4843286;29;46405;-80
2022/11/01 09:21:35;;;;;;;;;2.00;0.00;;;;;15.42;63.74;101441.91;4840791;29;45287;-80
2022/11/01 09:24:00;;;;;;;;;4.75;1.25;;;;;15.49;63.95;101440.72;4847822;29;45308;-80
2022/11/01 09:26:26;;;;;;;;;3.75;1.50;;;;;15.52;63.98;101458.56;4836792;29;45417;-80
2022/11/01 09:28:53;;;;;;;;;3.00;1.00;;;;;15.53;63.60;101458.47;4843373;29;45487;-80
2022/11/01 09:31:19;;;;;;;;;0.75;0.75;;;;;15.57;63.55;101461.94;4831510;29;45225;-80
2022/11/01 09:33:44;;;;;;;;;2.50;1.25;;;;;15.62;63.44;101461.72;4843109;29;45219;-80
2022/11/01 09:36:09;;;;;;;;;4.25;1.75;;;;;15.64;63.62;101460.72;4831508;29;45334;-80
2022/11/01 09:38:35;;;;;;;;;3.00;1.50;;;;;15.65;63.54;101458.91;4830086;29;46384;-80
2022/11/01 09:41:03;;;;;;;;;2.00;0.25;;;;;15.67;63.36;101459.69;4830684;29;45281;-80
2022/11/01 09:43:31;;;;;;;;;2.25;0.00;;;;;15.74;63.53;101467.47;4844217;29;45392;-80
2022/11/01 09:45:58;;;;;;;;;2.00;0.50;;;;;15.76;63.50;101469.25;4827940;29;45906;-80
2022/11/01 09:48:27;;;;;;;;;3.00;1.00;;;;;15.82;63.38;101474.34;4832773;29;46815;-80
2022/11/01 09:50:53;;;;;;;;;4.75;2.25;;;;;15.87;63.15;101481.31;4830064;29;45463;-75
2022/11/01 09:53:25;;;;;;;;;5.50;2.00;;;;;15.87;62.91;101477.72;4848795;29;45354;-76
2022/11/01 09:55:56;;;;;;;;;4.00;0.75;;;;;15.93;62.95;101474.78;4832768;29;46001;-75
2022/11/01 09:58:35;;;;;;;;;2.00;1.00;;;;;15.92;62.63;101467.63;4848245;29;47136;-75
2022/11/01 10:01:23;;;;;;;;;0.00;0.00;;;;;15.98;62.70;101474.59;4825633;29;45300;-76
2022/11/01 10:04:06;;;;;;;;;3.75;2.00;;;;;16.04;62.36;101483.28;4829452;29;45415;-75
2022/11/01 10:06:44;;;;;;;;;0.75;0.75;;;;;16.07;62.48;101477.75;4822615;29;45433;-76
2022/11/01 10:09:30;;;;;;;;;2.00;0.00;;;;;16.11;62.82;101489.28;4841142;29;47304;-80
2022/11/01 10:12:31;;;;;;;;;6.00;1.25;;;;;16.16;62.60;101481.88;4829116;29;45368;-81
2022/11/01 10:15:27;;;;;;;;;2.75;1.00;;;;;16.20;62.20;101480.78;4828573;29;45229;-80
2022/11/01 10:17:54;;;;;;;;;0.75;0.00;;;;;16.23;62.28;101474.38;4842522;29;45547;-82
2022/11/01 10:20:31;;;;;;;;;0.00;0.00;;;;;16.23;62.07;101475.25;4840452;29;47665;-81
2022/11/01 10:22:58;;;;;;;;;2.25;1.75;;;;;16.29;62.23;101482.22;4818081;29;45337;-81
2022/11/01 10:25:28;;;;;;;;;0.50;0.50;;;;;16.33;61.57;101485.63;4825466;29;45572;-81
2022/11/01 10:28:16;;;;;;;;;2.00;1.00;;;;;16.29;61.66;101472.28;4832445;29;45477;-80
2022/11/01 10:30:50;;;;;;;;;1.00;1.00;;;;;16.34;61.95;101484.66;4843350;29;46030;-81
2022/11/01 10:33:37;;;;;;;;;1.00;1.00;;;;;16.44;61.94;101492.28;4857445;29;45435;-81
2022/11/01 10:36:09;;;;;;;;;2.00;1.00;;;;;16.45;61.28;101488.63;4839763;29;45320;-81
2022/11/01 10:38:49;;;;;;;;;1.00;1.00;;;;;16.52;61.10;101489.22;4847427;29;45445;-76
2022/11/01 10:41:21;;;;;;;;;1.00;0.00;;;;;16.55;61.42;101483.69;4836538;29;46826;-77
2022/11/01 10:43:51;;;;;;;;;2.75;1.00;;;;;16.58;61.54;101485.41;4835767;29;45383;-76
2022/11/01 10:46:22;;;;;;;;;2.00;0.00;;;;;16.63;61.17;101483.38;4831415;29;45317;-76
2022/11/01 10:48:52;;;;;;;;;1.00;0.75;;;;;16.64;61.24;101486.00;4839303;29;45446;-76
2022/11/01 10:51:20;;;;;;;;;3.00;1.50;;;;;16.65;61.30;101463.47;4842316;29;45526;-76
2022/11/01 10:53:51;;;;;;;;;1.75;0.75;;;;;16.65;61.09;101460.78;4838370;29;45500;-81
2022/11/01 10:56:26;;;;;;;;;2.00;1.00;;;;;16.68;60.59;101459.75;4844250;29;45286;-81
2022/11/01 10:59:05;;;;;;;;;4.00;1.00;;;;;16.81;60.40;101468.16;4841415;29;45427;-81
2022/11/01 11:01:37;;;;;;;;;3.25;1.00;;;;;16.80;60.68;101456.47;4829194;29;47305;-81
2022/11/01 11:04:06;;;;;;;;;1.50;1.25;;;;;16.87;60.07;101457.09;4841430;29;45524;-77
2022/11/01 11:06:35;;;;;;;;;2.00;2.00;;;;;16.87;60.50;101477.81;4851631;29;45406;-81
2022/11/01 11:09:03;;;;;;;;;3.00;1.00;;;;;16.89;59.95;101467.81;4843080;29;46057;-81
2022/11/01 11:11:43;;;;;;;;;7.00;2.00;;;;;16.88;59.80;101460.69;4836867;29;45508;-81
2022/11/01 11:14:10;;;;;;;;;1.75;1.00;;;;;16.90;59.81;101459.66;4844781;29;45268;-81
2022/11/01 11:16:49;;;;;;;;;5.75;0.00;;;;;16.96;60.32;101463.91;4839531;29;45293;-81
2022/11/01 11:19:23;;;;;;;;;1.50;1.00;;;;;16.99;60.20;101464.63;4830195;29;45450;-81
2022/11/01 11:21:51;;;;;;;;;2.25;0.00;;;;;17.06;59.96;101465.22;4829391;29;46574;-81
2022/11/01 11:24:18;;;;;;;;;0.00;0.00;;;;;17.09;59.99;101470.47;4848078;29;45478;-81
2022/11/01 11:26:47;;;;;;;;;0.50;0.50;;;;;17.10;60.33;101452.44;4833749;29;45293;-81
2022/11/01 11:29:22;;;;;;;;;1.25;0.50;;;;;17.14;59.80;101463.00;4827701;29;45382;-81
2022/11/01 11:31:54;;;;;;;;;3.00;1.00;;;;;17.21;59.86;101461.75;4841589;29;45427;-81
2022/11/01 11:34:27;;;;;;;;;3.25;2.00;;;;;17.23;59.88;101470.66;4846153;29;45313;-82
2022/11/01 11:36:53;;;;;;;;;3.25;2.25;;;;;17.21;59.58;101460.91;4837526;29;45397;-82
2022/11/01 11:39:34;;;;;;;;;2.00;0.25;;;;;17.25;59.70;101462.47;4835569;29;45264;-81
2022/11/01 11:42:18;;;;;;;;;1.50;1.00;;;;;17.26;59.65;101456.16;4837709;29;46582;-81